createdAt,value
2023-05-09T00:02:08.477Z,100.00
2023-05-09T00:04:35.504Z,100.00
2023-05-09T00:07:02.597Z,100.00
2023-05-09T00:09:29.262Z,100.00
2023-05-09T00:11:56.052Z,100.00
2023-05-09T00:14:24.874Z,100.00
2023-05-09T00:16:51.778Z,100.00
2023-05-09T00:19:18.632Z,100.00
2023-05-09T00:21:45.862Z,100.00
2023-05-09T00:24:12.573Z,100.00
2023-05-09T00:26:39.379Z,100.00
2023-05-09T00:29:06.134Z,100.00
2023-05-09T00:31:33.127Z,100.00
2023-05-09T00:33:59.888Z,100.00
2023-05-09T00:36:26.589Z,100.00
2023-05-09T00:38:53.311Z,100.00
2023-05-09T00:41:20.055Z,100.00
2023-05-09T00:43:46.754Z,100.00
2023-05-09T00:46:13.482Z,100.00
2023-05-09T00:48:40.478Z,100.00
2023-05-09T00:51:07.255Z,100.00
2023-05-09T00:53:33.954Z,100.00
2023-05-09T00:56:00.774Z,100.00
2023-05-09T00:58:27.605Z,100.00
2023-05-09T01:00:54.318Z,100.00
2023-05-09T01:03:21.168Z,100.00
2023-05-09T01:05:53.220Z,100.00
2023-05-09T01:08:35.208Z,100.00
2023-05-09T01:11:07.230Z,100.00
2023-05-09T01:13:41.443Z,100.00
2023-05-09T01:16:18.329Z,100.00
2023-05-09T01:19:19.064Z,100.00
2023-05-09T01:21:45.833Z,100.00
2023-05-09T01:24:39.414Z,100.00
2023-05-09T01:27:32.777Z,100.00
2023-05-09T01:30:00.381Z,100.00
2023-05-09T01:32:28.387Z,100.00
2023-05-09T01:34:56.038Z,100.00
2023-05-09T01:37:26.092Z,100.00
2023-05-09T01:39:53.343Z,100.00
2023-05-09T01:42:20.486Z,100.00
2023-05-09T01:44:47.845Z,100.00
2023-05-09T01:47:16.531Z,100.00
2023-05-09T01:49:43.326Z,100.00
2023-05-09T01:52:13.564Z,100.00
2023-05-09T01:54:40.422Z,100.00
2023-05-09T01:57:07.800Z,100.00
2023-05-09T01:59:35.302Z,100.00
2023-05-09T02:02:03.361Z,100.00
2023-05-09T02:04:30.049Z,100.00
2023-05-09T02:06:57.088Z,100.00
2023-05-09T02:09:24.562Z,100.00
2023-05-09T02:11:51.318Z,100.00
2023-05-09T02:14:18.123Z,100.00
2023-05-09T02:16:44.917Z,100.00
2023-05-09T02:19:11.657Z,100.00
2023-05-09T02:21:38.415Z,100.00
2023-05-09T02:24:05.748Z,100.00
2023-05-09T02:26:32.448Z,100.00
2023-05-09T02:28:59.219Z,100.00
2023-05-09T02:31:26.076Z,100.00
2023-05-09T02:33:52.937Z,100.00
2023-05-09T02:36:19.696Z,100.00
2023-05-09T02:38:46.951Z,100.00
2023-05-09T02:41:17.254Z,100.00
2023-05-09T02:43:43.959Z,100.00
2023-05-09T02:46:10.962Z,100.00
2023-05-09T02:48:37.762Z,100.00
2023-05-09T02:51:05.298Z,100.00
2023-05-09T02:53:32.014Z,100.00
2023-05-09T02:55:58.800Z,100.00
2023-05-09T02:58:25.590Z,100.00
2023-05-09T03:00:52.344Z,100.00
2023-05-09T03:03:19.313Z,100.00
2023-05-09T03:05:46.445Z,100.00
2023-05-09T03:08:13.250Z,100.00
2023-05-09T03:10:40.120Z,100.00
2023-05-09T03:13:07.289Z,100.00
2023-05-09T03:15:34.045Z,100.00
2023-05-09T03:18:00.844Z,100.00
2023-05-09T03:20:27.912Z,100.00
2023-05-09T03:22:54.876Z,100.00
2023-05-09T03:25:22.387Z,100.00
2023-05-09T03:27:49.335Z,100.00
2023-05-09T03:30:16.143Z,100.00
2023-05-09T03:32:43.535Z,100.00
2023-05-09T03:35:10.414Z,100.00
2023-05-09T03:37:37.739Z,100.00
2023-05-09T03:40:06.621Z,100.00
2023-05-09T03:42:36.848Z,100.00
2023-05-09T03:45:04.454Z,100.00
2023-05-09T03:47:31.397Z,100.00
2023-05-09T03:49:58.783Z,100.00
2023-05-09T03:52:25.716Z,100.00
2023-05-09T03:54:52.658Z,100.00
2023-05-09T03:57:20.013Z,100.00
2023-05-09T03:59:47.474Z,99.03
2023-05-09T04:02:14.811Z,98.19
2023-05-09T04:04:41.595Z,95.35
2023-05-09T04:07:11.458Z,93.65
2023-05-09T04:09:38.150Z,89.88
2023-05-09T04:12:05.356Z,86.06
2023-05-09T04:14:32.554Z,83.67
2023-05-09T04:16:59.440Z,80.52
2023-05-09T04:19:26.230Z,77.93
2023-05-09T04:21:53.507Z,75.67
2023-05-09T04:24:20.692Z,72.99
2023-05-09T04:26:48.109Z,70.55
2023-05-09T04:29:17.748Z,68.82
2023-05-09T04:31:49.585Z,66.47
2023-05-09T04:34:16.579Z,64.78
2023-05-09T04:36:43.344Z,63.41
2023-05-09T04:39:10.880Z,61.13
2023-05-09T04:41:38.622Z,59.10
2023-05-09T04:44:05.624Z,58.26
2023-05-09T04:46:32.427Z,57.14
2023-05-09T04:48:59.180Z,55.27
2023-05-09T04:51:26.550Z,54.33
2023-05-09T04:53:53.292Z,53.62
2023-05-09T04:56:21.885Z,52.48
2023-05-09T04:58:49.502Z,51.03
2023-05-09T05:01:16.862Z,48.94
2023-05-09T05:03:44.330Z,48.50
2023-05-09T05:06:11.258Z,47.37
2023-05-09T05:08:39.374Z,45.72
2023-05-09T05:11:06.255Z,43.75
2023-05-09T05:13:34.100Z,42.30
2023-05-09T05:16:01.105Z,42.31
2023-05-09T05:18:28.013Z,40.95
2023-05-09T05:20:54.864Z,38.89
2023-05-09T05:23:22.295Z,38.04
2023-05-09T05:25:51.246Z,36.75
2023-05-09T05:28:19.151Z,35.92
2023-05-09T05:30:46.075Z,34.46
2023-05-09T05:33:12.856Z,33.27
2023-05-09T05:35:39.666Z,32.39
2023-05-09T05:38:06.643Z,32.31
2023-05-09T05:40:33.494Z,32.49
2023-05-09T05:43:02.301Z,31.89
2023-05-09T05:45:31.016Z,30.71
2023-05-09T05:47:58.636Z,30.06
2023-05-09T05:50:25.418Z,29.42
2023-05-09T05:52:52.802Z,29.17
2023-05-09T05:55:19.580Z,29.26
2023-05-09T05:57:47.709Z,29.14
2023-05-09T06:00:17.064Z,29.11
2023-05-09T06:02:46.169Z,29.33
2023-05-09T06:05:18.557Z,28.77
2023-05-09T06:07:45.632Z,28.78
2023-05-09T06:10:12.343Z,27.17
2023-05-09T06:12:39.106Z,25.34
2023-05-09T06:15:07.224Z,24.90
2023-05-09T06:17:35.904Z,23.38
2023-05-09T06:20:02.737Z,22.80
2023-05-09T06:22:30.060Z,22.91
2023-05-09T06:24:56.851Z,22.70
2023-05-09T06:27:23.790Z,21.59
2023-05-09T06:29:52.679Z,21.66
2023-05-09T06:32:19.690Z,21.30
2023-05-09T06:34:46.550Z,21.18
2023-05-09T06:37:13.286Z,21.59
2023-05-09T06:39:40.083Z,20.16
2023-05-09T06:42:06.800Z,19.91
2023-05-09T06:44:37.097Z,20.28
2023-05-09T06:47:03.779Z,20.07
2023-05-09T06:49:30.565Z,19.55
2023-05-09T06:51:57.244Z,19.68
2023-05-09T06:54:24.180Z,18.46
2023-05-09T06:56:51.258Z,17.91
2023-05-09T06:59:17.960Z,18.12
2023-05-09T07:01:44.727Z,18.27
2023-05-09T07:04:11.772Z,18.55
2023-05-09T07:06:38.523Z,18.61
2023-05-09T07:09:05.473Z,18.86
2023-05-09T07:11:36.361Z,19.30
2023-05-09T07:14:03.955Z,18.98
2023-05-09T07:16:30.810Z,18.02
2023-05-09T07:18:57.592Z,17.68
2023-05-09T07:21:24.403Z,18.48
2023-05-09T07:23:51.172Z,17.78
2023-05-09T07:26:17.913Z,17.29
2023-05-09T07:28:44.969Z,17.23
2023-05-09T07:31:12.145Z,16.91
2023-05-09T07:33:39.007Z,17.23
2023-05-09T07:36:06.163Z,16.87
2023-05-09T07:38:33.154Z,16.28
2023-05-09T07:40:59.947Z,16.06
2023-05-09T07:43:27.356Z,15.69
2023-05-09T07:45:54.309Z,15.78
2023-05-09T07:48:21.220Z,15.57
2023-05-09T07:50:47.930Z,15.62
2023-05-09T07:53:14.910Z,15.41
2023-05-09T07:55:42.131Z,15.00
2023-05-09T07:58:08.988Z,15.19
2023-05-09T08:00:36.139Z,15.08
2023-05-09T08:03:03.006Z,15.48
2023-05-09T08:05:29.972Z,15.09
2023-05-09T08:07:56.678Z,15.04
2023-05-09T08:10:23.633Z,15.55
2023-05-09T08:12:51.410Z,15.82
2023-05-09T08:15:18.469Z,15.57
2023-05-09T08:17:45.587Z,15.95
2023-05-09T08:20:13.230Z,16.10
2023-05-09T08:22:40.506Z,16.17
2023-05-09T08:25:08.298Z,16.95
2023-05-09T08:27:35.011Z,17.95
2023-05-09T08:30:12.679Z,18.24
2023-05-09T08:32:42.169Z,16.85
2023-05-09T08:35:09.146Z,16.47
2023-05-09T08:37:36.570Z,16.20
2023-05-09T08:40:07.996Z,16.05
2023-05-09T08:42:40.116Z,16.23
2023-05-09T08:45:16.244Z,16.14
2023-05-09T08:47:43.782Z,15.64
2023-05-09T08:50:11.898Z,14.54
2023-05-09T08:52:38.810Z,13.98
2023-05-09T08:55:05.658Z,14.19
2023-05-09T08:57:35.340Z,14.22
2023-05-09T09:00:04.513Z,13.68
2023-05-09T09:02:31.351Z,12.95
2023-05-09T09:05:03.180Z,12.75
2023-05-09T09:07:31.357Z,12.82
2023-05-09T09:09:58.707Z,12.70
2023-05-09T09:12:26.842Z,12.80
2023-05-09T09:14:55.335Z,13.23
2023-05-09T09:17:25.466Z,14.24
2023-05-09T09:19:52.557Z,14.92
2023-05-09T09:22:20.533Z,14.98
2023-05-09T09:24:47.649Z,14.23
2023-05-09T09:27:14.565Z,13.64
2023-05-09T09:29:41.257Z,14.08
2023-05-09T09:32:08.014Z,13.87
2023-05-09T09:34:35.007Z,13.82
2023-05-09T09:37:02.405Z,13.76
2023-05-09T09:39:29.367Z,14.16
2023-05-09T09:41:56.532Z,14.47
2023-05-09T09:44:24.158Z,14.71
2023-05-09T09:46:53.064Z,14.60
2023-05-09T09:49:21.333Z,14.61
2023-05-09T09:51:52.207Z,13.98
2023-05-09T09:54:19.165Z,13.50
2023-05-09T09:56:50.042Z,13.30
2023-05-09T09:59:18.550Z,13.24
2023-05-09T10:01:58.013Z,13.00
2023-05-09T10:04:25.576Z,13.11
2023-05-09T10:06:56.505Z,13.03
2023-05-09T10:09:24.161Z,12.71
2023-05-09T10:11:55.060Z,13.06
2023-05-09T10:14:23.526Z,12.95
2023-05-09T10:16:57.497Z,12.88
2023-05-09T10:19:26.454Z,13.39
2023-05-09T10:21:55.067Z,14.29
2023-05-09T10:24:28.005Z,15.05
2023-05-09T10:26:59.509Z,15.33
2023-05-09T10:29:26.275Z,16.14
2023-05-09T10:31:54.753Z,16.90
2023-05-09T10:34:21.633Z,17.34
2023-05-09T10:36:48.571Z,18.24
2023-05-09T10:39:15.384Z,19.08
2023-05-09T10:41:42.100Z,19.12
2023-05-09T10:44:08.902Z,19.03
2023-05-09T10:46:36.011Z,19.19
2023-05-09T10:49:02.987Z,19.71
2023-05-09T10:51:29.817Z,20.05
2023-05-09T10:53:56.634Z,20.30
2023-05-09T10:56:30.005Z,20.27
2023-05-09T10:58:57.399Z,20.58
2023-05-09T11:01:39.056Z,21.33
2023-05-09T11:04:13.219Z,21.12
2023-05-09T11:06:52.531Z,21.25
2023-05-09T11:09:35.529Z,21.83
2023-05-09T11:12:05.386Z,22.55
2023-05-09T11:14:39.685Z,22.25
2023-05-09T11:17:07.750Z,22.16
2023-05-09T11:19:37.463Z,21.88
2023-05-09T11:22:21.254Z,22.17
2023-05-09T11:24:53.912Z,22.05
2023-05-09T11:27:28.618Z,21.78
2023-05-09T11:29:56.636Z,21.84
2023-05-09T11:32:32.998Z,22.26
2023-05-09T11:35:16.277Z,22.68
2023-05-09T11:38:02.594Z,22.19
2023-05-09T11:40:30.136Z,21.82
2023-05-09T11:42:58.700Z,21.62
2023-05-09T11:45:30.326Z,21.61
2023-05-09T11:47:57.444Z,21.94
2023-05-09T11:50:24.407Z,22.01
2023-05-09T11:52:51.309Z,22.43
2023-05-09T11:55:20.471Z,22.74
2023-05-09T11:57:52.015Z,22.71
2023-05-09T12:00:20.535Z,22.75
2023-05-09T12:02:47.877Z,22.92
2023-05-09T12:05:16.920Z,23.07
2023-05-09T12:07:44.639Z,23.44
2023-05-09T12:10:13.193Z,23.95
2023-05-09T12:12:44.856Z,23.93
2023-05-09T12:15:13.594Z,24.19
2023-05-09T12:17:41.652Z,24.67
2023-05-09T12:20:09.150Z,24.46
2023-05-09T12:22:37.491Z,24.81
2023-05-09T12:25:09.586Z,24.20
2023-05-09T12:27:37.399Z,24.37
2023-05-09T12:30:12.098Z,24.72
2023-05-09T12:32:40.284Z,24.57
2023-05-09T12:35:08.454Z,24.06
2023-05-09T12:37:35.255Z,24.54
2023-05-09T12:40:15.732Z,24.67
2023-05-09T12:42:46.112Z,24.39
2023-05-09T12:45:13.412Z,24.76
2023-05-09T12:47:41.855Z,24.51
2023-05-09T12:50:10.629Z,24.69
2023-05-09T12:52:54.006Z,24.67
2023-05-09T12:55:25.590Z,24.61
2023-05-09T12:58:02.536Z,24.80
2023-05-09T13:00:29.713Z,25.41
2023-05-09T13:02:57.132Z,25.27
2023-05-09T13:05:24.410Z,25.23
2023-05-09T13:07:55.155Z,25.44
2023-05-09T13:10:28.418Z,25.45
2023-05-09T13:12:55.211Z,25.23
2023-05-09T13:15:22.709Z,25.28
2023-05-09T13:17:51.107Z,25.20
2023-05-09T13:20:18.933Z,25.29
2023-05-09T13:22:46.128Z,25.11
2023-05-09T13:25:13.116Z,24.77
2023-05-09T13:27:39.956Z,24.51
2023-05-09T13:30:10.217Z,24.53
2023-05-09T13:32:37.138Z,25.08
2023-05-09T13:35:06.877Z,24.82
2023-05-09T13:37:34.540Z,24.82
2023-05-09T13:40:01.603Z,24.60
2023-05-09T13:42:28.465Z,24.83
2023-05-09T13:44:55.175Z,25.33
2023-05-09T13:47:21.926Z,24.97
2023-05-09T13:49:48.700Z,24.22
2023-05-09T13:52:16.165Z,24.47
2023-05-09T13:54:43.006Z,24.73
2023-05-09T13:57:09.791Z,24.54
2023-05-09T13:59:36.931Z,24.76
2023-05-09T14:02:03.882Z,24.82
2023-05-09T14:04:34.390Z,25.03
2023-05-09T14:07:01.373Z,25.19
2023-05-09T14:09:28.878Z,24.80
2023-05-09T14:11:56.710Z,25.05
2023-05-09T14:14:24.266Z,25.13
2023-05-09T14:16:51.079Z,24.98
2023-05-09T14:19:17.804Z,25.21
2023-05-09T14:21:44.855Z,25.63
2023-05-09T14:24:15.008Z,25.89
2023-05-09T14:26:42.785Z,26.03
2023-05-09T14:29:09.513Z,26.01
2023-05-09T14:31:36.916Z,26.22
2023-05-09T14:34:05.373Z,26.12
2023-05-09T14:36:35.172Z,26.09
2023-05-09T14:39:02.368Z,26.06
2023-05-09T14:41:29.161Z,25.90
2023-05-09T14:43:55.994Z,26.00
2023-05-09T14:46:24.864Z,26.01
2023-05-09T14:48:52.889Z,25.91
2023-05-09T14:51:19.706Z,26.05
2023-05-09T14:53:47.260Z,26.02
2023-05-09T14:56:14.257Z,25.74
2023-05-09T14:58:41.048Z,25.75
2023-05-09T15:01:07.927Z,25.79
2023-05-09T15:03:34.881Z,25.77
2023-05-09T15:06:02.084Z,25.64
2023-05-09T15:08:28.828Z,25.55
2023-05-09T15:10:56.748Z,25.47
2023-05-09T15:13:23.761Z,25.63
2023-05-09T15:15:50.934Z,26.05
2023-05-09T15:18:18.593Z,26.64
2023-05-09T15:20:45.504Z,26.77
2023-05-09T15:23:12.473Z,27.10
2023-05-09T15:25:41.049Z,26.85
2023-05-09T15:28:07.770Z,26.76
2023-05-09T15:30:38.115Z,26.74
2023-05-09T15:33:05.309Z,26.51
2023-05-09T15:35:32.070Z,26.56
2023-05-09T15:37:59.155Z,26.65
2023-05-09T15:40:25.950Z,26.76
2023-05-09T15:42:52.990Z,27.06
2023-05-09T15:45:19.708Z,27.32
2023-05-09T15:47:46.745Z,27.50
2023-05-09T15:50:13.978Z,27.28
2023-05-09T15:52:40.918Z,27.30
2023-05-09T15:55:08.633Z,27.53
2023-05-09T15:57:35.451Z,27.83
2023-05-09T16:00:02.239Z,27.66
2023-05-09T16:02:39.418Z,28.00
2023-05-09T16:05:06.653Z,27.94
2023-05-09T16:07:35.812Z,27.79
2023-05-09T16:10:03.075Z,27.79
2023-05-09T16:12:32.771Z,27.35
2023-05-09T16:14:59.899Z,27.32
2023-05-09T16:17:26.813Z,27.81
2023-05-09T16:19:54.821Z,27.76
2023-05-09T16:22:21.898Z,27.49
2023-05-09T16:24:49.227Z,27.74
2023-05-09T16:27:16.449Z,28.01
2023-05-09T16:29:43.276Z,28.38
2023-05-09T16:32:10.285Z,28.32
2023-05-09T16:34:37.265Z,28.74
2023-05-09T16:37:04.166Z,28.73
2023-05-09T16:39:31.082Z,29.03
2023-05-09T16:41:58.263Z,29.39
2023-05-09T16:44:25.458Z,29.58
2023-05-09T16:46:52.542Z,30.05
2023-05-09T16:49:19.276Z,30.20
2023-05-09T16:51:45.979Z,30.48
2023-05-09T16:54:13.025Z,30.67
2023-05-09T16:56:39.870Z,30.84
2023-05-09T16:59:06.581Z,31.15
2023-05-09T17:01:33.474Z,31.31
2023-05-09T17:04:01.653Z,31.36
2023-05-09T17:06:28.665Z,31.52
2023-05-09T17:08:55.483Z,31.62
2023-05-09T17:11:22.760Z,31.66
2023-05-09T17:13:49.661Z,31.88
2023-05-09T17:16:16.568Z,31.89
2023-05-09T17:18:46.122Z,31.87
2023-05-09T17:21:16.700Z,32.13
2023-05-09T17:23:43.546Z,32.52
2023-05-09T17:26:10.518Z,32.73
2023-05-09T17:28:37.231Z,33.04
2023-05-09T17:31:04.537Z,33.28
2023-05-09T17:33:31.458Z,33.22
2023-05-09T17:36:00.131Z,33.45
2023-05-09T17:38:34.716Z,33.74
2023-05-09T17:41:01.920Z,33.96
2023-05-09T17:43:28.726Z,34.24
2023-05-09T17:45:55.954Z,34.78
2023-05-09T17:48:23.097Z,34.94
2023-05-09T17:50:50.368Z,35.00
2023-05-09T17:53:17.840Z,35.02
2023-05-09T17:55:44.611Z,35.32
2023-05-09T17:58:11.510Z,35.34
2023-05-09T18:00:38.225Z,35.40
2023-05-09T18:03:05.346Z,35.51
2023-05-09T18:05:32.204Z,35.99
2023-05-09T18:08:00.874Z,36.04
2023-05-09T18:10:28.527Z,36.29
2023-05-09T18:12:55.396Z,36.46
2023-05-09T18:15:22.214Z,36.63
2023-05-09T18:17:49.457Z,36.88
2023-05-09T18:20:16.452Z,37.05
2023-05-09T18:22:43.530Z,37.32
2023-05-09T18:25:10.458Z,37.45
2023-05-09T18:27:37.277Z,37.72
2023-05-09T18:30:04.941Z,38.00
2023-05-09T18:32:34.806Z,37.95
2023-05-09T18:35:01.584Z,37.99
2023-05-09T18:37:28.326Z,37.90
2023-05-09T18:39:55.116Z,38.18
2023-05-09T18:42:22.232Z,38.21
2023-05-09T18:44:49.291Z,38.26
2023-05-09T18:47:16.090Z,38.41
2023-05-09T18:49:42.962Z,38.46
2023-05-09T18:52:10.311Z,38.33
2023-05-09T18:54:38.248Z,38.60
2023-05-09T18:57:05.062Z,38.70
2023-05-09T18:59:32.340Z,38.62
2023-05-09T19:01:59.556Z,38.63
2023-05-09T19:04:26.872Z,38.73
2023-05-09T19:06:53.833Z,39.00
2023-05-09T19:09:20.672Z,39.27
2023-05-09T19:11:47.431Z,39.43
2023-05-09T19:14:14.230Z,39.81
2023-05-09T19:16:41.146Z,40.22
2023-05-09T19:19:09.006Z,40.06
2023-05-09T19:21:36.205Z,40.13
2023-05-09T19:24:04.679Z,40.26
2023-05-09T19:26:31.452Z,40.57
2023-05-09T19:28:58.366Z,41.23
2023-05-09T19:31:25.734Z,41.92
2023-05-09T19:33:54.849Z,42.09
2023-05-09T19:36:21.887Z,42.01
2023-05-09T19:38:48.649Z,42.03
2023-05-09T19:41:15.450Z,42.24
2023-05-09T19:43:42.768Z,42.12
2023-05-09T19:46:09.807Z,42.11
2023-05-09T19:48:37.889Z,42.20
2023-05-09T19:51:04.695Z,42.23
2023-05-09T19:53:31.644Z,42.27
2023-05-09T19:55:58.779Z,42.28
2023-05-09T19:58:25.646Z,42.40
2023-05-09T20:00:52.419Z,42.69
2023-05-09T20:03:19.174Z,42.76
2023-05-09T20:05:45.921Z,42.95
2023-05-09T20:08:15.616Z,43.06
2023-05-09T20:10:44.512Z,43.14
2023-05-09T20:13:11.327Z,43.24
2023-05-09T20:15:38.113Z,43.36
2023-05-09T20:18:07.113Z,43.51
2023-05-09T20:20:34.110Z,43.44
2023-05-09T20:23:00.839Z,43.53
2023-05-09T20:25:27.669Z,43.65
2023-05-09T20:27:54.807Z,43.79
2023-05-09T20:30:21.685Z,43.80
2023-05-09T20:32:48.452Z,43.78
2023-05-09T20:35:15.382Z,43.89
2023-05-09T20:37:42.262Z,43.91
2023-05-09T20:40:09.514Z,43.85
2023-05-09T20:42:36.418Z,44.13
2023-05-09T20:45:03.755Z,44.33
2023-05-09T20:47:30.528Z,44.34
2023-05-09T20:49:58.329Z,44.39
2023-05-09T20:52:25.506Z,44.55
2023-05-09T20:54:52.291Z,44.55
2023-05-09T20:57:19.194Z,44.70
2023-05-09T20:59:45.887Z,44.54
2023-05-09T21:02:13.678Z,44.66
2023-05-09T21:04:43.036Z,44.83
2023-05-09T21:07:10.113Z,45.01
2023-05-09T21:09:36.899Z,45.05
2023-05-09T21:12:04.521Z,44.61
2023-05-09T21:14:31.342Z,44.53
2023-05-09T21:16:58.461Z,44.52
2023-05-09T21:19:25.647Z,44.50
2023-05-09T21:21:52.417Z,44.58
2023-05-09T21:24:19.185Z,44.56
2023-05-09T21:26:45.993Z,44.84
2023-05-09T21:29:12.904Z,44.90
2023-05-09T21:31:39.745Z,44.68
2023-05-09T21:34:09.996Z,44.62
2023-05-09T21:36:38.446Z,44.58
2023-05-09T21:39:09.135Z,44.52
2023-05-09T21:41:37.035Z,44.56
2023-05-09T21:44:04.020Z,44.24
2023-05-09T21:46:34.747Z,44.23
2023-05-09T21:49:01.876Z,44.19
2023-05-09T21:51:28.787Z,44.32
2023-05-09T21:53:55.702Z,44.41
2023-05-09T21:56:22.736Z,44.48
2023-05-09T21:58:49.523Z,44.81
2023-05-09T22:01:16.678Z,44.56
2023-05-09T22:03:43.569Z,44.77
2023-05-09T22:06:11.557Z,45.25
2023-05-09T22:08:38.382Z,45.63
2023-05-09T22:11:05.096Z,46.16
2023-05-09T22:13:31.775Z,46.72
2023-05-09T22:15:58.541Z,46.85
2023-05-09T22:18:25.252Z,46.88
2023-05-09T22:20:51.970Z,46.72
2023-05-09T22:23:18.694Z,46.86
2023-05-09T22:25:45.455Z,47.20
2023-05-09T22:28:12.178Z,47.35
2023-05-09T22:30:38.900Z,47.48
2023-05-09T22:33:05.823Z,47.79
2023-05-09T22:35:32.621Z,48.58
2023-05-09T22:37:59.307Z,49.92
2023-05-09T22:40:26.792Z,50.08
2023-05-09T22:42:53.551Z,50.34
2023-05-09T22:45:20.802Z,50.06
2023-05-09T22:47:47.509Z,51.76
2023-05-09T22:50:14.630Z,52.53
2023-05-09T22:52:41.632Z,52.06
2023-05-09T22:55:08.751Z,52.31
2023-05-09T22:57:35.993Z,55.08
2023-05-09T23:00:03.205Z,60.63
2023-05-09T23:02:29.943Z,67.22
2023-05-09T23:04:56.753Z,71.29
2023-05-09T23:07:23.440Z,72.47
2023-05-09T23:09:50.738Z,71.00
2023-05-09T23:12:17.676Z,73.76
2023-05-09T23:14:44.398Z,77.88
2023-05-09T23:17:11.161Z,80.32
2023-05-09T23:19:38.138Z,79.47
2023-05-09T23:22:04.944Z,76.14
2023-05-09T23:24:31.659Z,73.07
2023-05-09T23:26:58.433Z,70.26
2023-05-09T23:29:25.252Z,68.71
2023-05-09T23:31:52.250Z,67.84
2023-05-09T23:34:19.320Z,69.60
2023-05-09T23:36:46.290Z,75.41
2023-05-09T23:39:13.284Z,76.15
2023-05-09T23:41:40.101Z,74.92
2023-05-09T23:44:07.675Z,72.78
2023-05-09T23:46:34.606Z,71.01
2023-05-09T23:49:01.509Z,69.53
2023-05-09T23:51:28.393Z,68.99
2023-05-09T23:53:55.050Z,73.55
2023-05-09T23:56:22.445Z,76.22
2023-05-09T23:58:49.196Z,77.98
